createdAt,value
2018-10-21T00:01:35.013Z,23.50
2018-10-21T00:04:02.056Z,22.43
2018-10-21T00:06:29.107Z,24.07
2018-10-21T00:08:56.160Z,24.07
2018-10-21T00:11:23.200Z,24.83
2018-10-21T00:13:50.769Z,23.57
2018-10-21T00:16:17.808Z,23.73
2018-10-21T00:18:44.858Z,23.80
2018-10-21T00:21:11.951Z,21.73
2018-10-21T00:23:38.954Z,21.60
2018-10-21T00:26:05.991Z,23.47
2018-10-21T00:28:33.058Z,24.60
2018-10-21T00:31:00.101Z,23.30
2018-10-21T00:33:27.150Z,25.33
2018-10-21T00:35:54.203Z,25.33
2018-10-21T00:38:21.246Z,24.23
2018-10-21T00:40:48.296Z,23.77
2018-10-21T00:43:15.549Z,23.17
2018-10-21T00:45:42.596Z,26.77
2018-10-21T00:48:09.652Z,24.63
2018-10-21T00:50:36.694Z,25.33
2018-10-21T00:53:04.050Z,24.07
2018-10-21T00:55:31.048Z,25.67
2018-10-21T00:57:58.523Z,23.17
2018-10-21T01:00:25.712Z,23.50
2018-10-21T01:02:52.863Z,24.33
2018-10-21T01:05:19.907Z,23.43
2018-10-21T01:07:46.956Z,22.87
2018-10-21T01:10:14.930Z,22.07
2018-10-21T01:12:41.870Z,20.37
2018-10-21T01:15:10.953Z,21.57
2018-10-21T01:17:37.919Z,20.43
2018-10-21T01:20:04.962Z,22.57
2018-10-21T01:22:31.975Z,19.87
2018-10-21T01:24:58.958Z,19.53
2018-10-21T01:27:26.007Z,21.17
2018-10-21T01:29:53.061Z,19.87
2018-10-21T01:32:20.103Z,18.33
2018-10-21T01:34:48.688Z,19.80
2018-10-21T01:37:15.780Z,19.57
2018-10-21T01:39:44.365Z,18.83
2018-10-21T01:42:11.369Z,19.03
2018-10-21T01:44:38.423Z,17.53
2018-10-21T01:47:06.389Z,18.27
2018-10-21T01:49:33.438Z,18.00
2018-10-21T01:52:00.489Z,18.27
2018-10-21T01:54:27.693Z,18.30
2018-10-21T01:56:54.831Z,17.03
2018-10-21T01:59:21.785Z,18.63
2018-10-21T02:01:51.650Z,19.17
2018-10-21T02:04:18.703Z,17.57
2018-10-21T02:06:50.049Z,17.87
2018-10-21T02:09:17.158Z,18.40
2018-10-21T02:11:44.042Z,17.80
2018-10-21T02:14:11.767Z,17.23
2018-10-21T02:16:38.758Z,17.53
2018-10-21T02:19:05.802Z,16.63
2018-10-21T02:21:32.850Z,17.07
2018-10-21T02:23:59.904Z,18.00
2018-10-21T02:26:27.028Z,17.37
2018-10-21T02:28:54.917Z,17.87
2018-10-21T02:31:21.814Z,17.83
2018-10-21T02:33:49.749Z,17.90
2018-10-21T02:36:16.784Z,18.73
2018-10-21T02:38:44.140Z,16.43
2018-10-21T02:41:27.876Z,17.93
2018-10-21T02:43:54.933Z,17.47
2018-10-21T02:46:21.923Z,17.23
2018-10-21T02:48:49.023Z,19.67
2018-10-21T02:51:16.309Z,18.37
2018-10-21T02:53:43.332Z,18.10
2018-10-21T02:56:10.380Z,17.63
2018-10-21T02:58:37.424Z,16.83
2018-10-21T03:01:04.476Z,18.17
2018-10-21T03:03:31.524Z,18.77
2018-10-21T03:05:58.875Z,18.93
2018-10-21T03:08:25.923Z,18.77
2018-10-21T03:10:52.981Z,17.50
2018-10-21T03:13:20.020Z,17.83
2018-10-21T03:15:47.068Z,17.73
2018-10-21T03:18:15.891Z,17.10
2018-10-21T03:20:43.213Z,17.60
2018-10-21T03:23:10.206Z,17.43
2018-10-21T03:25:37.208Z,18.90
2018-10-21T03:28:04.666Z,15.83
2018-10-21T03:30:31.727Z,15.90
2018-10-21T03:32:58.847Z,16.57
2018-10-21T03:35:26.224Z,16.87
2018-10-21T03:37:53.270Z,16.10
2018-10-21T03:40:20.324Z,16.30
2018-10-21T03:42:47.572Z,17.10
2018-10-21T03:45:14.569Z,16.23
2018-10-21T03:47:41.669Z,17.47
2018-10-21T03:50:09.028Z,16.20
2018-10-21T03:52:36.079Z,16.57
2018-10-21T03:55:03.122Z,16.60
2018-10-21T03:57:30.581Z,17.67
2018-10-21T03:59:57.629Z,18.17
2018-10-21T04:02:24.619Z,18.27
2018-10-21T04:04:51.832Z,17.43
2018-10-21T04:07:18.879Z,17.33
2018-10-21T04:09:45.873Z,18.23
2018-10-21T04:12:12.821Z,16.57
2018-10-21T04:14:39.822Z,18.37
2018-10-21T04:17:06.866Z,18.00
2018-10-21T04:19:33.901Z,15.37
2018-10-21T04:22:00.972Z,18.40
2018-10-21T04:24:28.012Z,15.73
2018-10-21T04:26:55.060Z,15.83
2018-10-21T04:29:22.051Z,17.07
2018-10-21T04:31:49.055Z,16.20
2018-10-21T04:34:16.186Z,14.63
2018-10-21T04:36:43.153Z,16.27
2018-10-21T04:39:25.868Z,16.70
2018-10-21T04:41:52.923Z,15.97
2018-10-21T04:44:19.965Z,17.10
2018-10-21T04:46:47.095Z,17.20
2018-10-21T04:49:14.067Z,15.57
2018-10-21T04:51:41.623Z,15.27
2018-10-21T04:54:08.677Z,15.83
2018-10-21T04:56:35.721Z,16.63
2018-10-21T05:01:35.905Z,15.70
2018-10-21T05:04:02.954Z,15.50
2018-10-21T05:06:29.960Z,15.70
2018-10-21T05:08:57.005Z,15.90
2018-10-21T05:11:24.104Z,15.23
2018-10-21T05:13:51.106Z,14.73
2018-10-21T05:16:19.014Z,17.33
2018-10-21T05:18:47.349Z,16.20
2018-10-21T05:21:14.402Z,17.77
2018-10-21T05:23:41.650Z,16.77
2018-10-21T05:26:09.518Z,16.37
2018-10-21T05:28:36.566Z,15.60
2018-10-21T05:31:03.621Z,16.60
2018-10-21T05:33:31.079Z,16.00
2018-10-21T05:35:58.123Z,15.73
2018-10-21T05:38:25.171Z,19.13
2018-10-21T05:40:53.122Z,17.10
2018-10-21T05:43:20.191Z,18.93
2018-10-21T05:45:47.242Z,16.80
2018-10-21T05:48:14.293Z,17.10
2018-10-21T05:50:41.337Z,15.73
2018-10-21T05:53:08.389Z,18.20
2018-10-21T05:55:36.097Z,16.87
2018-10-21T05:58:03.243Z,19.70
2018-10-21T06:00:30.302Z,16.33
2018-10-21T06:02:57.392Z,20.93
2018-10-21T06:05:24.394Z,14.97
2018-10-21T06:07:51.446Z,15.33
2018-10-21T06:10:20.180Z,17.13
2018-10-21T06:12:47.177Z,15.03
2018-10-21T06:15:14.221Z,14.30
2018-10-21T06:17:41.275Z,16.07
2018-10-21T06:20:08.427Z,14.83
2018-10-21T06:22:35.473Z,15.50
2018-10-21T06:25:04.054Z,15.57
2018-10-21T06:27:31.007Z,15.60
2018-10-21T06:29:58.049Z,14.90
2018-10-21T06:32:25.103Z,14.97
2018-10-21T06:34:52.146Z,15.27
2018-10-21T06:37:19.604Z,15.13
2018-10-21T06:39:46.653Z,16.27
2018-10-21T06:42:13.707Z,16.87
2018-10-21T06:44:40.751Z,16.53
2018-10-21T06:47:07.901Z,16.37
2018-10-21T06:49:34.951Z,16.70
2018-10-21T06:52:02.511Z,16.27
2018-10-21T06:54:29.558Z,16.13
2018-10-21T06:56:56.889Z,17.03
2018-10-21T06:59:23.862Z,16.63
2018-10-21T07:01:50.919Z,17.27
2018-10-21T07:04:18.074Z,16.43
2018-10-21T07:06:47.059Z,16.93
2018-10-21T07:09:14.108Z,17.20
2018-10-21T07:11:41.151Z,18.57
2018-10-21T07:14:09.223Z,17.37
2018-10-21T07:16:36.603Z,17.67
2018-10-21T07:19:03.627Z,19.43
2018-10-21T07:21:30.677Z,23.03
2018-10-21T07:23:57.730Z,19.87
2018-10-21T07:26:24.774Z,19.83
2018-10-21T07:28:51.925Z,20.30
2018-10-21T07:31:19.076Z,20.53
2018-10-21T07:33:47.049Z,17.93
2018-10-21T07:36:14.154Z,20.13
2018-10-21T07:38:41.145Z,17.77
2018-10-21T07:41:08.193Z,19.30
2018-10-21T07:43:36.571Z,18.07
2018-10-21T07:46:03.669Z,18.97
2018-10-21T07:48:30.777Z,20.43
2018-10-21T07:50:57.927Z,18.73
2018-10-21T07:53:24.971Z,21.30
2018-10-21T07:55:52.326Z,21.33
2018-10-21T07:58:19.430Z,21.43
2018-10-21T08:00:46.465Z,21.30
2018-10-21T08:03:13.882Z,23.17
2018-10-21T08:06:02.744Z,22.13
2018-10-21T08:08:29.802Z,21.33
2018-10-21T08:10:56.838Z,22.40
2018-10-21T08:13:23.857Z,24.07
2018-10-21T08:15:51.141Z,25.90
2018-10-21T08:18:18.399Z,24.70
2018-10-21T08:20:45.443Z,28.17
2018-10-21T08:23:12.493Z,31.70
2018-10-21T08:25:39.544Z,32.97
2018-10-21T08:28:06.604Z,30.87
2018-10-21T08:30:33.636Z,32.27
2018-10-21T08:33:00.890Z,33.57
2018-10-21T08:35:28.353Z,30.00
2018-10-21T08:37:55.704Z,24.57
2018-10-21T08:40:22.758Z,20.63
2018-10-21T08:42:49.909Z,26.40
2018-10-21T08:45:17.059Z,25.50
2018-10-21T08:47:44.671Z,18.90
2018-10-21T08:50:11.612Z,20.20
2018-10-21T08:52:38.718Z,17.53
2018-10-21T08:55:06.183Z,16.93
2018-10-21T08:57:33.223Z,19.20
2018-10-21T09:00:00.274Z,22.37
2018-10-21T09:02:29.978Z,16.93
2018-10-21T09:04:57.075Z,19.57
2018-10-21T09:07:24.587Z,19.40
2018-10-21T09:09:53.441Z,20.53
2018-10-21T09:12:24.112Z,18.53
2018-10-21T09:14:53.699Z,14.10
2018-10-21T09:17:20.667Z,22.27
2018-10-21T09:19:53.501Z,15.67
2018-10-21T09:22:44.478Z,14.90
2018-10-21T09:25:11.696Z,20.53
2018-10-21T09:27:38.810Z,13.50
2018-10-21T09:30:05.811Z,13.00
2018-10-21T09:32:32.865Z,21.80
2018-10-21T09:35:00.938Z,15.27
2018-10-21T09:37:28.187Z,15.63
2018-10-21T09:39:55.383Z,17.07
2018-10-21T09:42:22.591Z,16.70
2018-10-21T09:44:49.640Z,17.40
2018-10-21T09:47:18.633Z,15.48
2018-10-21T09:49:46.034Z,12.95
2018-10-21T09:52:13.710Z,18.13
2018-10-21T09:54:40.701Z,11.68
2018-10-21T09:57:07.755Z,13.27
2018-10-21T09:59:34.797Z,14.47
2018-10-21T10:02:18.538Z,10.27
2018-10-21T10:04:46.105Z,14.07
2018-10-21T10:07:13.635Z,14.63
2018-10-21T10:09:40.713Z,15.38
2018-10-21T10:12:07.755Z,15.85
2018-10-21T10:14:34.806Z,12.35
2018-10-21T10:17:01.955Z,22.30
2018-10-21T10:19:30.642Z,17.02
2018-10-21T10:21:58.205Z,12.90
2018-10-21T10:24:25.255Z,15.18
2018-10-21T10:26:52.306Z,23.35
2018-10-21T10:29:20.992Z,19.30
2018-10-21T10:31:48.239Z,13.52
2018-10-21T10:34:15.700Z,17.62
2018-10-21T10:36:42.645Z,9.00
2018-10-21T10:39:09.693Z,14.15
2018-10-21T10:41:36.755Z,12.40
2018-10-21T10:44:03.790Z,12.55
2018-10-21T10:46:31.205Z,21.67
2018-10-21T10:48:58.226Z,18.48
2018-10-21T10:51:25.243Z,12.75
2018-10-21T10:53:52.600Z,17.58
2018-10-21T10:56:19.654Z,9.73
2018-10-21T10:58:46.695Z,13.38
2018-10-21T11:01:13.947Z,9.52
2018-10-21T11:03:41.107Z,12.57
2018-10-21T11:06:09.191Z,12.40
2018-10-21T11:08:36.221Z,12.77
2018-10-21T11:11:03.270Z,16.37
2018-10-21T11:13:30.527Z,14.45
2018-10-21T11:15:57.581Z,10.10
2018-10-21T11:18:24.626Z,14.52
2018-10-21T11:20:51.778Z,12.35
2018-10-21T11:23:19.029Z,9.48
2018-10-21T11:25:46.919Z,14.50
2018-10-21T11:28:14.033Z,10.60
2018-10-21T11:30:41.196Z,11.52
2018-10-21T11:33:08.346Z,11.25
2018-10-21T11:35:35.606Z,15.10
2018-10-21T11:38:02.719Z,18.35
2018-10-21T11:40:29.907Z,13.65
2018-10-21T11:42:58.078Z,13.68
2018-10-21T11:45:25.135Z,12.30
2018-10-21T11:47:52.384Z,8.73
2018-10-21T11:50:19.439Z,7.00
2018-10-21T11:52:46.520Z,8.60
2018-10-21T11:55:14.102Z,5.95
2018-10-21T11:57:41.650Z,6.57
2018-10-21T12:00:09.882Z,5.28
2018-10-21T12:02:37.703Z,5.68
2018-10-21T12:05:06.535Z,5.05
2018-10-21T12:07:35.877Z,5.62
2018-10-21T12:10:03.550Z,4.70
2018-10-21T12:12:32.183Z,4.87
2018-10-21T12:14:59.237Z,3.67
2018-10-21T12:17:26.281Z,3.50
2018-10-21T12:19:55.256Z,3.75
2018-10-21T12:22:22.274Z,3.20
2018-10-21T12:24:49.475Z,3.55
2018-10-21T12:27:16.728Z,2.60
2018-10-21T12:29:44.029Z,2.20
2018-10-21T12:32:11.029Z,3.20
2018-10-21T12:34:38.078Z,3.10
2018-10-21T12:37:06.212Z,3.70
2018-10-21T12:39:33.142Z,2.80
2018-10-21T12:42:02.349Z,1.80
2018-10-21T12:44:34.265Z,1.40
2018-10-21T12:47:01.317Z,1.23
2018-10-21T12:49:28.357Z,1.67
2018-10-21T12:51:55.426Z,1.40
2018-10-21T12:54:22.411Z,1.90
2018-10-21T12:56:49.550Z,1.73
2018-10-21T12:59:16.556Z,1.40
2018-10-21T13:01:43.600Z,1.10
2018-10-21T13:04:11.238Z,1.20
2018-10-21T13:06:38.317Z,1.67
2018-10-21T13:09:05.361Z,1.67
2018-10-21T13:11:32.619Z,1.83
2018-10-21T13:14:00.601Z,1.20
2018-10-21T13:16:27.735Z,0.90
2018-10-21T13:18:55.895Z,1.30
2018-10-21T13:21:22.957Z,1.03
2018-10-21T13:23:50.007Z,1.07
2018-10-21T13:26:17.160Z,1.77
2018-10-21T13:28:44.448Z,1.27
2018-10-21T13:31:11.472Z,1.17
2018-10-21T13:33:38.821Z,1.60
2018-10-21T13:36:06.068Z,1.20
2018-10-21T13:38:33.123Z,1.40
2018-10-21T13:41:00.214Z,1.60
2018-10-21T13:43:27.317Z,2.50
2018-10-21T13:45:54.447Z,1.90
2018-10-21T13:48:21.618Z,1.90
2018-10-21T13:50:49.622Z,2.07
2018-10-21T13:53:16.873Z,2.30
2018-10-21T13:55:43.994Z,2.27
2018-10-21T13:58:11.913Z,1.63
2018-10-21T14:00:39.198Z,1.40
2018-10-21T14:03:06.272Z,1.60
2018-10-21T14:05:33.319Z,1.00
2018-10-21T14:08:01.084Z,2.63
2018-10-21T14:10:28.435Z,1.50
2018-10-21T14:12:55.805Z,1.93
2018-10-21T14:15:22.915Z,1.80
2018-10-21T14:17:50.103Z,1.70
2018-10-21T14:20:19.123Z,2.20
2018-10-21T14:22:46.955Z,2.00
2018-10-21T14:25:16.383Z,1.73
2018-10-21T14:27:43.571Z,2.13
2018-10-21T14:30:10.729Z,2.07
2018-10-21T14:32:38.433Z,2.00
2018-10-21T14:35:05.894Z,1.83
2018-10-21T14:37:32.878Z,1.90
2018-10-21T14:40:00.406Z,2.03
2018-10-21T14:42:27.547Z,1.70
2018-10-21T14:44:54.805Z,2.00
2018-10-21T14:47:22.615Z,2.00
2018-10-21T14:49:51.258Z,1.40
2018-10-21T14:52:18.296Z,2.00
2018-10-21T14:54:45.345Z,2.40
2018-10-21T14:57:14.341Z,2.10
2018-10-21T14:59:41.439Z,1.97
2018-10-21T15:02:08.712Z,2.10
2018-10-21T15:04:35.896Z,2.00
2018-10-21T15:07:04.340Z,2.20
2018-10-21T15:09:31.645Z,2.27
2018-10-21T15:11:59.436Z,2.10
2018-10-21T15:14:27.063Z,2.20
2018-10-21T15:16:55.775Z,2.70
2018-10-21T15:19:22.870Z,21.47
2018-10-21T15:21:49.841Z,2.40
2018-10-21T15:24:17.248Z,2.00
2018-10-21T15:26:44.247Z,1.90
2018-10-21T15:29:12.035Z,2.47
2018-10-21T15:31:39.368Z,2.60
2018-10-21T15:34:07.013Z,2.63
2018-10-21T15:36:34.080Z,2.73
2018-10-21T15:39:01.338Z,2.37
2018-10-21T15:41:30.146Z,2.77
2018-10-21T15:43:58.906Z,2.57
2018-10-21T15:46:28.459Z,2.60
2018-10-21T15:48:55.954Z,2.73
2018-10-21T15:51:23.238Z,2.83
2018-10-21T15:53:51.853Z,2.80
2018-10-21T15:56:20.095Z,2.30
2018-10-21T15:58:47.906Z,2.60
2018-10-21T16:01:16.493Z,3.30
2018-10-21T16:03:45.167Z,2.67
2018-10-21T16:06:15.558Z,3.07
2018-10-21T16:08:43.983Z,3.00
2018-10-21T16:11:16.516Z,3.00
2018-10-21T16:13:46.664Z,3.70
2018-10-21T16:16:17.689Z,3.80
2018-10-21T16:18:47.590Z,3.60
2018-10-21T16:21:17.303Z,3.40
2018-10-21T16:23:45.630Z,3.60
2018-10-21T16:26:14.632Z,4.10
2018-10-21T16:28:43.727Z,4.40
2018-10-21T16:31:11.473Z,3.70
2018-10-21T16:33:39.924Z,3.83
2018-10-21T16:36:09.019Z,3.47
2018-10-21T16:38:37.506Z,4.03
2018-10-21T16:41:06.034Z,3.77
2018-10-21T16:43:33.851Z,3.43
2018-10-21T16:46:02.929Z,3.57
2018-10-21T16:48:31.466Z,4.30
2018-10-21T16:51:00.137Z,3.90
2018-10-21T16:53:29.545Z,3.40
2018-10-21T16:56:01.340Z,3.30
2018-10-21T16:58:30.118Z,2.80
2018-10-21T17:00:57.842Z,3.37
2018-10-21T17:03:26.883Z,2.63
2018-10-21T17:05:55.591Z,3.37
2018-10-21T17:08:23.837Z,3.20
2018-10-21T17:10:53.187Z,2.90
2018-10-21T17:13:22.111Z,3.30
2018-10-21T17:15:50.405Z,3.27
2018-10-21T17:18:19.406Z,3.33
2018-10-21T17:20:50.201Z,3.30
2018-10-21T17:23:18.172Z,3.47
2018-10-21T17:25:48.896Z,3.20
2018-10-21T17:28:18.981Z,3.00
2018-10-21T17:30:46.080Z,3.10
2018-10-21T17:33:15.009Z,3.47
2018-10-21T17:35:44.162Z,2.93
2018-10-21T17:38:12.797Z,3.50
2018-10-21T17:40:40.305Z,2.87
2018-10-21T17:43:10.988Z,3.60
2018-10-21T17:45:39.429Z,3.50
2018-10-21T17:48:07.845Z,2.83
2018-10-21T17:50:35.363Z,3.20
2018-10-21T17:53:03.795Z,3.27
2018-10-21T17:55:32.123Z,3.50
2018-10-21T17:57:59.953Z,3.63
2018-10-21T18:00:30.132Z,3.97
2018-10-21T18:02:58.652Z,3.70
2018-10-21T18:05:29.477Z,3.43
2018-10-21T18:07:57.919Z,3.80
2018-10-21T18:10:26.342Z,3.70
2018-10-21T18:12:58.173Z,3.73
2018-10-21T18:15:25.612Z,3.50
2018-10-21T18:17:56.710Z,3.80
2018-10-21T18:20:24.661Z,3.53
2018-10-21T18:22:52.082Z,3.67
2018-10-21T18:25:21.212Z,3.57
2018-10-21T18:27:48.535Z,3.87
2018-10-21T18:30:15.997Z,3.60
2018-10-21T18:32:47.598Z,3.20
2018-10-21T18:35:15.210Z,3.47
2018-10-21T18:37:43.393Z,3.73
2018-10-21T18:40:12.984Z,3.40
2018-10-21T18:42:40.732Z,3.80
2018-10-21T18:45:13.444Z,3.77
2018-10-21T18:47:42.275Z,4.57
2018-10-21T18:50:11.647Z,3.60
2018-10-21T18:52:39.873Z,3.87
2018-10-21T18:55:08.037Z,4.07
2018-10-21T18:57:37.118Z,4.23
2018-10-21T19:00:05.487Z,4.70
2018-10-21T19:02:32.916Z,4.43
2018-10-21T19:05:02.654Z,4.20
2018-10-21T19:07:32.804Z,3.80
2018-10-21T19:10:00.463Z,3.87
2018-10-21T19:12:31.505Z,3.73
2018-10-21T19:15:00.039Z,3.83
2018-10-21T19:17:32.562Z,3.83
2018-10-21T19:20:01.102Z,3.63
2018-10-21T19:22:30.654Z,3.53
2018-10-21T19:24:59.841Z,3.87
2018-10-21T19:27:29.419Z,3.50
2018-10-21T19:29:56.976Z,4.00
2018-10-21T19:32:27.759Z,5.03
2018-10-21T19:34:56.804Z,5.77
2018-10-21T19:37:25.492Z,5.63
2018-10-21T19:40:01.216Z,5.67
2018-10-21T19:42:29.955Z,5.77
2018-10-21T19:44:57.492Z,6.67
2018-10-21T19:47:25.698Z,5.97
2018-10-21T19:49:57.194Z,7.30
2018-10-21T19:52:26.624Z,7.03
2018-10-21T19:54:56.443Z,7.73
2018-10-21T19:57:33.677Z,12.50
2018-10-21T20:00:02.672Z,5.53
2018-10-21T20:02:32.847Z,5.10
2018-10-21T20:04:59.896Z,7.80
2018-10-21T20:07:28.510Z,6.30
2018-10-21T20:09:57.252Z,5.30
2018-10-21T20:12:25.643Z,5.80
2018-10-21T20:14:53.210Z,5.30
2018-10-21T20:17:25.074Z,5.67
2018-10-21T20:19:52.216Z,5.43
2018-10-21T20:22:21.258Z,5.77
2018-10-21T20:24:49.641Z,6.17
2018-10-21T20:27:18.281Z,7.43
2018-10-21T20:29:47.686Z,6.23
2018-10-21T20:32:17.818Z,6.23
2018-10-21T20:34:45.473Z,6.40
2018-10-21T20:37:12.974Z,4.90
2018-10-21T20:39:41.438Z,5.27
2018-10-21T20:44:44.645Z,6.90
2018-10-21T20:47:14.482Z,6.00
2018-10-21T20:49:44.617Z,5.03
2018-10-21T20:52:16.860Z,5.20
2018-10-21T20:54:48.506Z,5.90
2018-10-21T20:57:17.601Z,4.03
2018-10-21T20:59:47.377Z,5.43
2018-10-21T21:02:14.788Z,5.20
2018-10-21T21:04:42.101Z,4.67
2018-10-21T21:07:09.459Z,5.13
2018-10-21T21:09:36.503Z,5.80
2018-10-21T21:12:03.797Z,5.20
2018-10-21T21:14:30.805Z,4.80
2018-10-21T21:16:57.854Z,4.93
2018-10-21T21:19:25.315Z,4.50
2018-10-21T21:21:54.632Z,4.83
2018-10-21T21:24:21.670Z,4.83
2018-10-21T21:26:49.224Z,4.27
2018-10-21T21:29:16.276Z,5.13
2018-10-21T21:31:43.319Z,4.03
2018-10-21T21:34:10.849Z,4.63
2018-10-21T21:36:39.505Z,4.77
2018-10-21T21:39:07.954Z,4.00
2018-10-21T21:41:35.303Z,4.23
2018-10-21T21:44:02.398Z,4.20
2018-10-21T21:46:29.450Z,4.30
2018-10-21T21:48:56.449Z,4.27
2018-10-21T21:51:23.497Z,4.97
2018-10-21T21:53:50.536Z,4.73
2018-10-21T21:56:17.580Z,4.30
2018-10-21T21:58:44.630Z,4.47
2018-10-21T22:01:11.686Z,5.20
2018-10-21T22:03:38.627Z,5.47
2018-10-21T22:06:05.705Z,4.57
2018-10-21T22:08:32.727Z,5.67
2018-10-21T22:10:59.879Z,5.43
2018-10-21T22:13:26.928Z,4.63
2018-10-21T22:15:53.937Z,4.47
2018-10-21T22:18:20.925Z,4.90
2018-10-21T22:20:47.873Z,4.10
2018-10-21T22:23:14.924Z,4.10
2018-10-21T22:25:41.977Z,4.70
2018-10-21T22:28:09.037Z,4.30
2018-10-21T22:30:36.073Z,4.20
2018-10-21T22:33:03.066Z,4.40
2018-10-21T22:35:30.069Z,5.27
2018-10-21T22:37:57.128Z,4.37
2018-10-21T22:40:24.481Z,4.77
2018-10-21T22:42:51.528Z,4.00
2018-10-21T22:45:18.583Z,4.53
2018-10-21T22:47:45.933Z,4.47
2018-10-21T22:50:12.982Z,3.53
2018-10-21T22:52:40.038Z,4.30
2018-10-21T22:55:07.496Z,4.30
2018-10-21T22:57:34.540Z,4.30
2018-10-21T23:00:01.603Z,4.07
2018-10-21T23:02:28.645Z,3.83
2018-10-21T23:04:55.687Z,4.20
2018-10-21T23:07:22.839Z,4.73
2018-10-21T23:09:50.187Z,4.93
2018-10-21T23:12:17.307Z,4.47
2018-10-21T23:14:44.281Z,4.03
2018-10-21T23:17:11.328Z,3.83
2018-10-21T23:19:38.277Z,4.40
2018-10-21T23:22:05.472Z,4.70
2018-10-21T23:24:32.477Z,4.67
2018-10-21T23:26:59.527Z,4.83
2018-10-21T23:29:26.678Z,4.70
2018-10-21T23:31:53.830Z,4.20
2018-10-21T23:34:20.823Z,4.43
2018-10-21T23:36:49.148Z,4.23
2018-10-21T23:39:16.205Z,3.67
2018-10-21T23:41:43.246Z,3.17
2018-10-21T23:44:10.202Z,5.13
2018-10-21T23:46:37.239Z,4.80
2018-10-21T23:49:04.391Z,4.00
2018-10-21T23:51:31.439Z,4.53
2018-10-21T23:54:00.666Z,4.80
2018-10-21T23:56:27.687Z,4.60
2018-10-21T23:58:54.735Z,4.87
